sensor_id;sensor_type;location;lat;lon;timestamp;pressure;altitude;pressure_sealevel;temperature;humidity
53514;BME280;39768;54.148;12.174;2024-01-15T00:01:21;98755.03;;;-3.22;54.65
53514;BME280;39768;54.148;12.174;2024-01-15T00:05:24;98752.22;;;-3.38;53.68
53514;BME280;39768;54.148;12.174;2024-01-15T00:09:25;98729.50;;;-2.70;52.54
53514;BME280;39768;54.148;12.174;2024-01-15T00:13:29;98728.91;;;-3.31;52.83
53514;BME280;39768;54.148;12.174;2024-01-15T00:17:30;98700.28;;;-3.44;53.88
53514;BME280;39768;54.148;12.174;2024-01-15T00:21:32;98704.00;;;-3.87;56.39
53514;BME280;39768;54.148;12.174;2024-01-15T00:25:33;98693.81;;;-4.16;56.42
53514;BME280;39768;54.148;12.174;2024-01-15T00:29:35;98669.16;;;-4.18;58.02
53514;BME280;39768;54.148;12.174;2024-01-15T00:33:36;98663.94;;;-3.79;54.43
53514;BME280;39768;54.148;12.174;2024-01-15T00:37:39;98648.31;;;-3.87;53.28
53514;BME280;39768;54.148;12.174;2024-01-15T00:41:40;98639.06;;;-4.36;56.00
53514;BME280;39768;54.148;12.174;2024-01-15T00:45:42;98639.56;;;-4.07;55.83
53514;BME280;39768;54.148;12.174;2024-01-15T00:49:44;98621.31;;;-3.95;55.28
53514;BME280;39768;54.148;12.174;2024-01-15T00:53:45;98603.03;;;-4.40;57.30
53514;BME280;39768;54.148;12.174;2024-01-15T00:57:47;98593.13;;;-4.16;57.24
53514;BME280;39768;54.148;12.174;2024-01-15T01:01:48;98581.19;;;-4.45;56.97
53514;BME280;39768;54.148;12.174;2024-01-15T01:05:50;98578.41;;;-3.84;54.35
53514;BME280;39768;54.148;12.174;2024-01-15T01:09:52;98560.06;;;-3.89;54.32
53514;BME280;39768;54.148;12.174;2024-01-15T01:13:54;98554.47;;;-3.45;52.51
53514;BME280;39768;54.148;12.174;2024-01-15T01:17:55;98543.88;;;-3.83;52.02
53514;BME280;39768;54.148;12.174;2024-01-15T01:21:57;98524.13;;;-3.94;51.33
53514;BME280;39768;54.148;12.174;2024-01-15T01:25:58;98533.44;;;-3.67;52.34
53514;BME280;39768;54.148;12.174;2024-01-15T01:30:00;98522.31;;;-3.56;50.29
53514;BME280;39768;54.148;12.174;2024-01-15T01:34:01;98513.81;;;-3.82;52.90
53514;BME280;39768;54.148;12.174;2024-01-15T01:38:03;98526.75;;;-3.57;52.75
53514;BME280;39768;54.148;12.174;2024-01-15T01:42:05;98509.94;;;-4.12;58.07
53514;BME280;39768;54.148;12.174;2024-01-15T01:46:07;98508.84;;;-3.70;57.55
53514;BME280;39768;54.148;12.174;2024-01-15T01:50:10;98485.00;;;-4.08;58.08
53514;BME280;39768;54.148;12.174;2024-01-15T01:54:12;98483.59;;;-3.60;58.17
53514;BME280;39768;54.148;12.174;2024-01-15T01:58:15;98470.16;;;-3.93;60.01
53514;BME280;39768;54.148;12.174;2024-01-15T02:02:17;98476.63;;;-3.80;58.41
53514;BME280;39768;54.148;12.174;2024-01-15T02:06:20;98468.88;;;-3.31;57.40
53514;BME280;39768;54.148;12.174;2024-01-15T02:10:21;98463.63;;;-3.67;59.28
53514;BME280;39768;54.148;12.174;2024-01-15T02:14:23;98447.56;;;-3.83;58.09
53514;BME280;39768;54.148;12.174;2024-01-15T02:18:24;98442.50;;;-3.88;59.53
53514;BME280;39768;54.148;12.174;2024-01-15T02:22:26;98449.00;;;-3.76;58.67
53514;BME280;39768;54.148;12.174;2024-01-15T02:26:28;98437.84;;;-3.83;58.98
53514;BME280;39768;54.148;12.174;2024-01-15T02:30:30;98438.38;;;-3.06;57.02
53514;BME280;39768;54.148;12.174;2024-01-15T02:34:32;98450.09;;;-3.10;54.28
53514;BME280;39768;54.148;12.174;2024-01-15T02:38:34;98447.00;;;-2.85;53.62
53514;BME280;39768;54.148;12.174;2024-01-15T02:42:36;98452.28;;;-2.68;53.81
53514;BME280;39768;54.148;12.174;2024-01-15T02:46:37;98464.78;;;-2.70;53.09
53514;BME280;39768;54.148;12.174;2024-01-15T02:50:39;98437.88;;;-2.96;53.82
53514;BME280;39768;54.148;12.174;2024-01-15T02:54:40;98447.88;;;-2.51;52.44
53514;BME280;39768;54.148;12.174;2024-01-15T02:58:42;98432.44;;;-3.11;53.84
53514;BME280;39768;54.148;12.174;2024-01-15T03:02:44;98432.72;;;-2.99;52.02
53514;BME280;39768;54.148;12.174;2024-01-15T03:06:49;98449.94;;;-3.41;54.70
53514;BME280;39768;54.148;12.174;2024-01-15T03:10:50;98454.84;;;-3.51;53.38
53514;BME280;39768;54.148;12.174;2024-01-15T03:14:52;98441.50;;;-3.15;53.50
53514;BME280;39768;54.148;12.174;2024-01-15T03:18:54;98451.72;;;-2.90;52.18
53514;BME280;39768;54.148;12.174;2024-01-15T03:22:55;98462.56;;;-3.29;51.29
53514;BME280;39768;54.148;12.174;2024-01-15T03:26:57;98452.00;;;-2.79;49.91
53514;BME280;39768;54.148;12.174;2024-01-15T03:30:58;98455.81;;;-3.17;49.88
53514;BME280;39768;54.148;12.174;2024-01-15T03:35:00;98473.28;;;-2.30;48.11
53514;BME280;39768;54.148;12.174;2024-01-15T03:39:02;98449.94;;;-3.24;48.63
53514;BME280;39768;54.148;12.174;2024-01-15T03:43:04;98447.16;;;-2.55;46.96
53514;BME280;39768;54.148;12.174;2024-01-15T03:47:05;98466.09;;;-2.61;46.92
53514;BME280;39768;54.148;12.174;2024-01-15T03:51:07;98456.75;;;-2.85;47.39
53514;BME280;39768;54.148;12.174;2024-01-15T03:55:08;98457.34;;;-3.30;47.80
53514;BME280;39768;54.148;12.174;2024-01-15T03:59:10;98467.38;;;-2.85;46.92
53514;BME280;39768;54.148;12.174;2024-01-15T04:03:11;98459.69;;;-1.31;44.65
53514;BME280;39768;54.148;12.174;2024-01-15T04:07:13;98469.28;;;-2.21;45.35
53514;BME280;39768;54.148;12.174;2024-01-15T04:11:14;98481.03;;;-2.58;45.03
53514;BME280;39768;54.148;12.174;2024-01-15T04:15:16;98477.59;;;-2.60;45.94
53514;BME280;39768;54.148;12.174;2024-01-15T04:19:18;98462.56;;;-2.94;46.25
53514;BME280;39768;54.148;12.174;2024-01-15T04:23:19;98451.16;;;-2.30;46.65
53514;BME280;39768;54.148;12.174;2024-01-15T04:27:21;98444.88;;;-4.00;50.72
53514;BME280;39768;54.148;12.174;2024-01-15T04:31:24;98471.84;;;-3.37;49.70
53514;BME280;39768;54.148;12.174;2024-01-15T04:35:26;98454.41;;;-3.96;49.87
53514;BME280;39768;54.148;12.174;2024-01-15T04:39:28;98455.34;;;-3.97;48.96
53514;BME280;39768;54.148;12.174;2024-01-15T04:43:29;98458.03;;;-3.44;49.05
53514;BME280;39768;54.148;12.174;2024-01-15T04:47:31;98455.59;;;-3.66;48.23
53514;BME280;39768;54.148;12.174;2024-01-15T04:51:32;98453.34;;;-3.56;48.33
53514;BME280;39768;54.148;12.174;2024-01-15T04:55:34;98451.78;;;-3.43;47.11
53514;BME280;39768;54.148;12.174;2024-01-15T04:59:35;98463.31;;;-3.79;48.43
53514;BME280;39768;54.148;12.174;2024-01-15T05:03:37;98477.25;;;-3.94;47.22
53514;BME280;39768;54.148;12.174;2024-01-15T05:07:39;98480.38;;;-3.48;46.04
53514;BME280;39768;54.148;12.174;2024-01-15T05:11:40;98482.72;;;-3.78;45.98
53514;BME280;39768;54.148;12.174;2024-01-15T05:15:42;98485.97;;;-4.48;47.68
53514;BME280;39768;54.148;12.174;2024-01-15T05:19:44;98495.34;;;-3.30;47.05
53514;BME280;39768;54.148;12.174;2024-01-15T05:23:46;98491.72;;;-4.01;47.72
53514;BME280;39768;54.148;12.174;2024-01-15T05:27:48;98495.50;;;-4.83;48.66
53514;BME280;39768;54.148;12.174;2024-01-15T05:31:50;98497.06;;;-4.59;49.12
53514;BME280;39768;54.148;12.174;2024-01-15T05:35:51;98469.69;;;-4.78;48.21
53514;BME280;39768;54.148;12.174;2024-01-15T05:39:53;98481.72;;;-4.13;47.25
53514;BME280;39768;54.148;12.174;2024-01-15T05:43:54;98502.66;;;-3.90;46.66
53514;BME280;39768;54.148;12.174;2024-01-15T05:47:56;98508.25;;;-4.52;48.52
53514;BME280;39768;54.148;12.174;2024-01-15T05:51:58;98506.75;;;-4.01;48.31
53514;BME280;39768;54.148;12.174;2024-01-15T05:55:59;98518.81;;;-4.13;46.94
53514;BME280;39768;54.148;12.174;2024-01-15T06:00:03;98514.81;;;-3.65;47.46
53514;BME280;39768;54.148;12.174;2024-01-15T06:04:06;98525.53;;;-3.68;46.19
53514;BME280;39768;54.148;12.174;2024-01-15T06:08:08;98534.78;;;-3.58;45.76
53514;BME280;39768;54.148;12.174;2024-01-15T06:12:09;98526.69;;;-3.93;46.66
53514;BME280;39768;54.148;12.174;2024-01-15T06:16:13;98538.94;;;-4.09;45.55
53514;BME280;39768;54.148;12.174;2024-01-15T06:20:16;98536.00;;;-3.65;45.17
53514;BME280;39768;54.148;12.174;2024-01-15T06:24:18;98558.00;;;-3.82;43.79
53514;BME280;39768;54.148;12.174;2024-01-15T06:28:21;98562.00;;;-3.55;43.82
53514;BME280;39768;54.148;12.174;2024-01-15T06:32:23;98575.09;;;-4.08;43.08
53514;BME280;39768;54.148;12.174;2024-01-15T06:36:24;98575.94;;;-4.26;44.95
53514;BME280;39768;54.148;12.174;2024-01-15T06:40:26;98567.56;;;-3.78;44.38
53514;BME280;39768;54.148;12.174;2024-01-15T06:44:27;98572.50;;;-4.28;45.73
53514;BME280;39768;54.148;12.174;2024-01-15T06:48:29;98587.13;;;-4.01;45.54
53514;BME280;39768;54.148;12.174;2024-01-15T06:52:30;98577.53;;;-4.22;45.96
53514;BME280;39768;54.148;12.174;2024-01-15T06:56:32;98595.94;;;-4.39;44.12
53514;BME280;39768;54.148;12.174;2024-01-15T07:00:33;98602.94;;;-4.18;44.19
53514;BME280;39768;54.148;12.174;2024-01-15T07:04:35;98606.50;;;-4.19;45.11
53514;BME280;39768;54.148;12.174;2024-01-15T07:08:39;98617.78;;;-4.14;44.13
53514;BME280;39768;54.148;12.174;2024-01-15T09:26:24;98806.09;;;-4.62;44.44
53514;BME280;39768;54.148;12.174;2024-01-15T15:01:01;99281.69;;;-5.42;42.50
53514;BME280;39768;54.148;12.174;2024-01-15T15:05:03;99278.94;;;-5.09;43.30
53514;BME280;39768;54.148;12.174;2024-01-15T15:09:05;99284.03;;;-5.96;44.63
53514;BME280;39768;54.148;12.174;2024-01-15T15:13:13;99294.34;;;-5.86;45.24
53514;BME280;39768;54.148;12.174;2024-01-15T15:17:14;99305.72;;;-6.16;43.15
53514;BME280;39768;54.148;12.174;2024-01-15T15:21:16;99304.72;;;-6.12;44.63
53514;BME280;39768;54.148;12.174;2024-01-15T15:25:18;99316.25;;;-6.50;43.70
53514;BME280;39768;54.148;12.174;2024-01-15T15:29:20;99319.22;;;-6.28;43.73
53514;BME280;39768;54.148;12.174;2024-01-15T15:33:21;99315.31;;;-6.47;44.80
53514;BME280;39768;54.148;12.174;2024-01-15T15:37:23;99324.09;;;-6.85;44.81
53514;BME280;39768;54.148;12.174;2024-01-15T15:41:25;99333.38;;;-5.97;43.36
53514;BME280;39768;54.148;12.174;2024-01-15T15:45:27;99338.81;;;-6.01;42.68
53514;BME280;39768;54.148;12.174;2024-01-15T15:49:28;99333.28;;;-5.92;42.79
53514;BME280;39768;54.148;12.174;2024-01-15T15:53:30;99338.66;;;-6.31;44.54
53514;BME280;39768;54.148;12.174;2024-01-15T15:57:32;99344.81;;;-6.30;45.19
53514;BME280;39768;54.148;12.174;2024-01-15T16:01:34;99353.84;;;-6.03;44.33
53514;BME280;39768;54.148;12.174;2024-01-15T16:05:36;99353.03;;;-6.07;44.22
53514;BME280;39768;54.148;12.174;2024-01-15T16:09:52;99364.94;;;-6.26;45.48
53514;BME280;39768;54.148;12.174;2024-01-15T16:13:54;99378.06;;;-5.86;44.39
53514;BME280;39768;54.148;12.174;2024-01-15T16:17:55;99385.22;;;-6.64;43.96
53514;BME280;39768;54.148;12.174;2024-01-15T16:22:17;99382.00;;;-6.39;44.28
53514;BME280;39768;54.148;12.174;2024-01-15T16:26:38;99388.28;;;-6.08;42.55
53514;BME280;39768;54.148;12.174;2024-01-15T16:30:41;99391.81;;;-6.09;43.18
53514;BME280;39768;54.148;12.174;2024-01-15T16:34:48;99396.50;;;-6.20;43.74
53514;BME280;39768;54.148;12.174;2024-01-15T16:38:49;99388.25;;;-6.06;43.55
53514;BME280;39768;54.148;12.174;2024-01-15T16:42:52;99399.78;;;-5.75;42.31
53514;BME280;39768;54.148;12.174;2024-01-15T16:46:53;99408.03;;;-5.53;43.01
53514;BME280;39768;54.148;12.174;2024-01-15T16:50:59;99408.44;;;-6.04;43.31
53514;BME280;39768;54.148;12.174;2024-01-15T16:55:01;99415.91;;;-5.50;43.50
53514;BME280;39768;54.148;12.174;2024-01-15T16:59:03;99421.50;;;-5.98;43.86
53514;BME280;39768;54.148;12.174;2024-01-15T17:03:05;99436.88;;;-5.42;43.52
53514;BME280;39768;54.148;12.174;2024-01-15T17:07:06;99452.53;;;-5.35;42.50
53514;BME280;39768;54.148;12.174;2024-01-15T17:11:09;99466.16;;;-5.18;43.05
53514;BME280;39768;54.148;12.174;2024-01-15T17:15:11;99475.03;;;-4.88;41.87
53514;BME280;39768;54.148;12.174;2024-01-15T17:19:13;99478.25;;;-4.76;41.43
53514;BME280;39768;54.148;12.174;2024-01-15T17:23:15;99489.44;;;-4.65;42.31
53514;BME280;39768;54.148;12.174;2024-01-15T17:27:17;99501.91;;;-5.35;42.66
53514;BME280;39768;54.148;12.174;2024-01-15T17:31:19;99505.00;;;-5.18;42.86
53514;BME280;39768;54.148;12.174;2024-01-15T17:35:21;99513.34;;;-5.70;43.38
53514;BME280;39768;54.148;12.174;2024-01-15T17:39:23;99515.97;;;-6.07;44.53
53514;BME280;39768;54.148;12.174;2024-01-15T17:43:24;99526.38;;;-6.00;43.79
53514;BME280;39768;54.148;12.174;2024-01-15T17:47:26;99518.38;;;-6.37;44.13
53514;BME280;39768;54.148;12.174;2024-01-15T17:51:29;99528.88;;;-6.32;43.27
53514;BME280;39768;54.148;12.174;2024-01-15T17:55:31;99530.91;;;-6.05;43.96
53514;BME280;39768;54.148;12.174;2024-01-15T17:59:32;99541.31;;;-6.82;44.34
53514;BME280;39768;54.148;12.174;2024-01-15T18:03:34;99540.25;;;-6.29;45.07
53514;BME280;39768;54.148;12.174;2024-01-15T18:07:36;99534.44;;;-6.46;45.25
53514;BME280;39768;54.148;12.174;2024-01-15T18:11:38;99544.75;;;-6.77;45.36
53514;BME280;39768;54.148;12.174;2024-01-15T18:15:40;99547.66;;;-6.92;45.19
53514;BME280;39768;54.148;12.174;2024-01-15T18:19:41;99551.63;;;-6.70;44.71
53514;BME280;39768;54.148;12.174;2024-01-15T18:23:43;99558.78;;;-6.75;44.46
53514;BME280;39768;54.148;12.174;2024-01-15T18:27:45;99555.63;;;-6.95;44.04
53514;BME280;39768;54.148;12.174;2024-01-15T18:31:48;99560.09;;;-6.12;43.28
53514;BME280;39768;54.148;12.174;2024-01-15T18:35:50;99574.63;;;-6.32;43.13
53514;BME280;39768;54.148;12.174;2024-01-15T18:39:52;99592.03;;;-6.66;43.56
53514;BME280;39768;54.148;12.174;2024-01-15T18:43:53;99592.38;;;-5.98;43.19
53514;BME280;39768;54.148;12.174;2024-01-15T18:47:55;99607.84;;;-5.40;41.07
53514;BME280;39768;54.148;12.174;2024-01-15T18:51:57;99613.34;;;-5.49;41.95
53514;BME280;39768;54.148;12.174;2024-01-15T18:56:01;99622.28;;;-5.18;41.69
53514;BME280;39768;54.148;12.174;2024-01-15T19:00:03;99629.69;;;-5.32;41.99
53514;BME280;39768;54.148;12.174;2024-01-15T19:04:05;99618.56;;;-5.46;42.43
53514;BME280;39768;54.148;12.174;2024-01-15T19:08:06;99637.91;;;-5.84;41.47
53514;BME280;39768;54.148;12.174;2024-01-15T19:12:08;99649.94;;;-5.69;41.19
53514;BME280;39768;54.148;12.174;2024-01-15T19:16:10;99661.00;;;-5.13;41.15
53514;BME280;39768;54.148;12.174;2024-01-15T19:20:12;99656.28;;;-5.38;40.88
53514;BME280;39768;54.148;12.174;2024-01-15T19:24:15;99659.91;;;-5.42;41.71
53514;BME280;39768;54.148;12.174;2024-01-15T19:28:16;99673.22;;;-5.87;42.84
53514;BME280;39768;54.148;12.174;2024-01-15T19:32:18;99675.47;;;-5.28;42.63
53514;BME280;39768;54.148;12.174;2024-01-15T19:36:25;99677.00;;;-5.20;41.57
53514;BME280;39768;54.148;12.174;2024-01-15T19:40:27;99699.38;;;-5.33;41.71
53514;BME280;39768;54.148;12.174;2024-01-15T19:44:31;99693.25;;;-5.35;42.60
53514;BME280;39768;54.148;12.174;2024-01-15T19:48:32;99687.53;;;-5.98;41.86
53514;BME280;39768;54.148;12.174;2024-01-15T19:52:34;99697.03;;;-6.33;41.90
53514;BME280;39768;54.148;12.174;2024-01-15T19:56:36;99697.28;;;-6.46;42.79
53514;BME280;39768;54.148;12.174;2024-01-15T20:00:39;99704.06;;;-5.87;42.24
53514;BME280;39768;54.148;12.174;2024-01-15T20:04:41;99709.38;;;-5.89;42.71
53514;BME280;39768;54.148;12.174;2024-01-15T20:08:42;99719.91;;;-5.05;41.15
53514;BME280;39768;54.148;12.174;2024-01-15T20:12:45;99729.41;;;-5.78;42.53
53514;BME280;39768;54.148;12.174;2024-01-15T20:16:47;99732.78;;;-5.70;42.30
53514;BME280;39768;54.148;12.174;2024-01-15T20:20:49;99743.31;;;-5.67;41.44
53514;BME280;39768;54.148;12.174;2024-01-15T20:24:50;99736.06;;;-6.02;41.84
53514;BME280;39768;54.148;12.174;2024-01-15T20:28:52;99733.34;;;-6.44;42.89
53514;BME280;39768;54.148;12.174;2024-01-15T20:32:55;99741.13;;;-6.38;42.77
53514;BME280;39768;54.148;12.174;2024-01-15T20:36:57;99732.56;;;-6.03;41.33
53514;BME280;39768;54.148;12.174;2024-01-15T20:40:59;99731.28;;;-5.83;42.09
53514;BME280;39768;54.148;12.174;2024-01-15T20:45:00;99734.47;;;-6.12;42.64
53514;BME280;39768;54.148;12.174;2024-01-15T20:49:03;99732.25;;;-5.88;42.07
53514;BME280;39768;54.148;12.174;2024-01-15T20:53:05;99730.91;;;-6.08;42.70
53514;BME280;39768;54.148;12.174;2024-01-15T20:57:07;99746.00;;;-5.70;41.70
53514;BME280;39768;54.148;12.174;2024-01-15T21:01:09;99752.63;;;-6.40;41.99
53514;BME280;39768;54.148;12.174;2024-01-15T21:05:11;99761.94;;;-4.92;40.97
53514;BME280;39768;54.148;12.174;2024-01-15T21:09:13;99767.94;;;-4.84;40.80
53514;BME280;39768;54.148;12.174;2024-01-15T21:13:15;99767.41;;;-4.99;39.66
53514;BME280;39768;54.148;12.174;2024-01-15T21:17:16;99770.53;;;-4.11;38.58
53514;BME280;39768;54.148;12.174;2024-01-15T21:21:18;99776.94;;;-4.92;39.05
53514;BME280;39768;54.148;12.174;2024-01-15T21:25:20;99773.44;;;-4.56;38.68
53514;BME280;39768;54.148;12.174;2024-01-15T21:29:22;99770.41;;;-4.77;39.05
53514;BME280;39768;54.148;12.174;2024-01-15T21:33:24;99768.91;;;-4.51;38.40
53514;BME280;39768;54.148;12.174;2024-01-15T21:37:27;99775.91;;;-4.85;38.97
53514;BME280;39768;54.148;12.174;2024-01-15T21:41:29;99787.16;;;-5.14;40.14
53514;BME280;39768;54.148;12.174;2024-01-15T21:45:31;99803.09;;;-5.17;40.33
53514;BME280;39768;54.148;12.174;2024-01-15T21:52:59;99812.53;;;0.35;40.20
53514;BME280;39768;54.148;12.174;2024-01-15T21:57:00;99814.84;;;0.10;39.75
53514;BME280;39768;54.148;12.174;2024-01-15T22:01:02;99821.66;;;0.20;39.60
53514;BME280;39768;54.148;12.174;2024-01-15T22:05:04;99821.41;;;0.32;39.13
53514;BME280;39768;54.148;12.174;2024-01-15T22:09:06;99832.47;;;-0.75;40.85
53514;BME280;39768;54.148;12.174;2024-01-15T22:13:07;99838.25;;;-1.01;42.52
53514;BME280;39768;54.148;12.174;2024-01-15T22:17:09;99833.53;;;0.04;40.59
53514;BME280;39768;54.148;12.174;2024-01-15T22:21:10;99830.88;;;-0.38;40.65
53514;BME280;39768;54.148;12.174;2024-01-15T22:25:12;99830.53;;;-1.69;43.22
53514;BME280;39768;54.148;12.174;2024-01-15T22:29:13;99829.28;;;-2.03;44.98
53514;BME280;39768;54.148;12.174;2024-01-15T22:33:15;99833.22;;;-1.72;44.61
53514;BME280;39768;54.148;12.174;2024-01-15T22:37:17;99846.78;;;-1.98;43.89
53514;BME280;39768;54.148;12.174;2024-01-15T22:41:18;99853.75;;;-1.90;43.59
53514;BME280;39768;54.148;12.174;2024-01-15T22:45:20;99858.16;;;-1.91;43.63
53514;BME280;39768;54.148;12.174;2024-01-15T22:49:22;99860.38;;;-1.62;43.91
53514;BME280;39768;54.148;12.174;2024-01-15T22:53:23;99866.34;;;-0.97;42.24
53514;BME280;39768;54.148;12.174;2024-01-15T22:57:25;99864.00;;;-1.14;40.77
53514;BME280;39768;54.148;12.174;2024-01-15T23:06:04;99879.22;;;-1.88;42.99
53514;BME280;39768;54.148;12.174;2024-01-15T23:10:08;99876.81;;;-2.06;43.13
53514;BME280;39768;54.148;12.174;2024-01-15T23:14:10;99881.28;;;-0.96;41.47
53514;BME280;39768;54.148;12.174;2024-01-15T23:18:11;99885.84;;;-1.03;41.97
53514;BME280;39768;54.148;12.174;2024-01-15T23:22:13;99898.09;;;-0.05;40.98
53514;BME280;39768;54.148;12.174;2024-01-15T23:26:18;99898.19;;;-0.54;42.42
53514;BME280;39768;54.148;12.174;2024-01-15T23:30:20;99891.81;;;-1.47;42.55
53514;BME280;39768;54.148;12.174;2024-01-15T23:34:21;99908.44;;;-0.36;41.25
53514;BME280;39768;54.148;12.174;2024-01-15T23:38:23;99909.41;;;0.05;40.04
53514;BME280;39768;54.148;12.174;2024-01-15T23:42:26;99914.34;;;0.20;40.08
53514;BME280;39768;54.148;12.174;2024-01-15T23:46:27;99919.19;;;-0.45;39.97
53514;BME280;39768;54.148;12.174;2024-01-15T23:50:29;99931.22;;;-0.27;39.52
53514;BME280;39768;54.148;12.174;2024-01-15T23:54:31;99943.09;;;-0.51;40.56
53514;BME280;39768;54.148;12.174;2024-01-15T23:58:36;99952.25;;;0.22;39.47
